Arklow Spray — C6VK8 — position and weather

sailwx.info

Track history (hours):
 
Tides and Currents Weather Stations Pressure Air Temp Water Temp Dewpoint Dewpoint Depression Visibility Wind Speed Wind Dir Waves Ship Positions

Arklow Spray

Last reported at 2016-Feb-04 23:14 UTC. Time now 2016-Feb-06 07:11 UTC.
Position N 50°57' E 001°13'.

Length 16 m; draft 4.2 m.

Type: Cargo ship. MMSI: 309914000.

Date/timePositionNaut miles runAvg speedWind from/ knotsBaromVisibWave heightAir tempDewpointWater temp
2016-Feb-04 23:14N 50°57' E 001°13'7 9.6
2016-Feb-04 22:33N 51°01' E 001°22'9 9.0
2016-Feb-04 21:33N 51°07' E 001°32'9 9.1
2016-Feb-04 20:33N 51°13' E 001°43'10 9.9
2016-Feb-04 19:33N 51°21' E 001°52'1111.0
2016-Feb-04 18:33N 51°30' E 002°03'161 9.5
2016-Feb-04 01:33N 53°32' E 004°56'8 8.1
2016-Feb-04 00:33N 53°34' E 005°08'8 8.4
2016-Feb-03 23:33N 53°37' E 005°22'9 8.9
2016-Feb-03 22:33N 53°40' E 005°36'9 9.1
2016-Feb-03 21:33N 53°43' E 005°50'9 9.2
2016-Feb-03 20:33N 53°47' E 006°05'9 9.3
2016-Feb-03 19:33N 53°50' E 006°20'9 8.9
2016-Feb-03 18:33N 53°52' E 006°34'8 8.4
2016-Feb-03 17:33N 53°54' E 006°48'8 7.8
2016-Feb-03 16:33N 53°56' E 007°01'8 7.9
2016-Feb-03 15:33N 53°58' E 007°14'8 7.9
2016-Feb-03 14:33N 53°60' E 007°27'8 7.8
2016-Feb-03 13:33N 54°01' E 007°40'7 7.1
2016-Feb-03 12:33N 54°02' E 007°52'7 7.0
2016-Feb-03 11:33N 54°01' E 008°04'8 7.6
2016-Feb-03 10:33N 54°01' E 008°17'1111.3
2016-Feb-03 09:33N 53°58' E 008°36'1111.3
2016-Feb-03 08:33N 53°51' E 008°50'10 9.5
2016-Feb-03 07:33N 53°53' E 009°06'2 0.5
2016-Feb-03 03:29N 53°54' E 009°09'0 0.0
2016-Feb-03 01:29N 53°54' E 009°09'0 0.0
2016-Feb-03 00:29N 53°54' E 009°09'0 0.0
2016-Feb-02 21:23N 53°54' E 009°09'0 0.0
2016-Feb-02 19:22N 53°54' E 009°09'0 0.0
2016-Feb-02 15:22N 53°54' E 009°09'0 0.0
2016-Feb-02 13:30N 53°54' E 009°09'0 0.0
2016-Feb-02 12:33N 53°54' E 009°09'33 6.6
2016-Feb-02 07:32N 54°20' E 009°43'3 3.1
2016-Feb-02 06:33N 54°22' E 009°47'8 7.6
2016-Feb-02 05:33N 54°21' E 010°01'4 4.2
2016-Feb-02 04:33N 54°22' E 010°08'0 0.5
2016-Feb-02 03:34N 54°22' E 010°08'1 1.3
2016-Feb-02 02:34N 54°22' E 010°11'5 4.6
2016-Feb-02 01:31N 54°27' E 010°14'12 9.1
2016-Feb-02 00:14N 54°33' E 010°31'6 9.2
2016-Feb-01 23:33N 54°35' E 010°41'9 8.8
2016-Feb-01 22:34N 54°36' E 010°57'8 7.7
2016-Feb-01 21:33N 54°36' E 011°10'8 8.2
2016-Feb-01 20:34N 54°33' E 011°23'8 7.8
2016-Feb-01 19:33N 54°30' E 011°35'9 8.5
2016-Feb-01 18:33N 54°27' E 011°49'11 9.1
2016-Feb-01 17:22N 54°27' E 012°07'55 8.8
2016-Feb-01 11:09N 54°46' E 013°36'1110.3
2016-Feb-01 10:07N 54°43' E 013°54'710.5
2016-Feb-01 09:26N 54°41' E 014°06'28 9.1
2016-Feb-01 06:23N 54°48' E 014°53'8 9.8
2016-Feb-01 05:34N 54°53' E 015°04'1010.1
2016-Feb-01 04:33N 54°59' E 015°18'1010.4
2016-Feb-01 03:33N 55°06' E 015°32'  
2016-Jan-26 09:10N 54°12' E 014°40'710.8
2016-Jan-26 08:33N 54°07' E 014°32'1110.9
2016-Jan-26 07:33N 54°01' E 014°17'9 8.6
2016-Jan-26 06:33N 53°52' E 014°17'10 9.8
2016-Jan-26 05:33N 53°44' E 014°26'1010.3
2016-Jan-26 04:33N 53°35' E 014°36'8 8.3
2016-Jan-26 03:33N 53°27' E 014°36'3 2.9
2016-Jan-26 02:33N 53°24' E 014°37'0 0.0
2016-Jan-26 01:33N 53°24' E 014°37'0 0.0
2016-Jan-26 00:33N 53°24' E 014°37'0 0.0
2016-Jan-25 23:33N 53°24' E 014°37'  
Track history (hours):
 
Tides and Currents Weather Stations Pressure Air Temp Water Temp Dewpoint Dewpoint Depression Visibility Wind Speed Wind Dir Waves Ship Positions

Arklow Spray

Last reported at 2016-Feb-04 23:14 UTC. Time now 2016-Feb-06 07:11 UTC.
Position N 50°57' E 001°13'.

Length 16 m; draft 4.2 m.

Type: Cargo ship. MMSI: 309914000.

Date/timePositionNaut miles runAvg speedWind from/ knotsBaromVisibWave heightAir tempDewpointWater temp
2016-Feb-04 23:14N 50°57' E 001°13'7 9.6
2016-Feb-04 22:33N 51°01' E 001°22'9 9.0
2016-Feb-04 21:33N 51°07' E 001°32'9 9.1
2016-Feb-04 20:33N 51°13' E 001°43'10 9.9
2016-Feb-04 19:33N 51°21' E 001°52'1111.0
2016-Feb-04 18:33N 51°30' E 002°03'161 9.5
2016-Feb-04 01:33N 53°32' E 004°56'8 8.1
2016-Feb-04 00:33N 53°34' E 005°08'8 8.4
2016-Feb-03 23:33N 53°37' E 005°22'9 8.9
2016-Feb-03 22:33N 53°40' E 005°36'9 9.1
2016-Feb-03 21:33N 53°43' E 005°50'9 9.2
2016-Feb-03 20:33N 53°47' E 006°05'9 9.3
2016-Feb-03 19:33N 53°50' E 006°20'9 8.9
2016-Feb-03 18:33N 53°52' E 006°34'8 8.4
2016-Feb-03 17:33N 53°54' E 006°48'8 7.8
2016-Feb-03 16:33N 53°56' E 007°01'8 7.9
2016-Feb-03 15:33N 53°58' E 007°14'8 7.9
2016-Feb-03 14:33N 53°60' E 007°27'8 7.8
2016-Feb-03 13:33N 54°01' E 007°40'7 7.1
2016-Feb-03 12:33N 54°02' E 007°52'7 7.0
2016-Feb-03 11:33N 54°01' E 008°04'8 7.6
2016-Feb-03 10:33N 54°01' E 008°17'1111.3
2016-Feb-03 09:33N 53°58' E 008°36'1111.3
2016-Feb-03 08:33N 53°51' E 008°50'10 9.5
2016-Feb-03 07:33N 53°53' E 009°06'2 0.5
2016-Feb-03 03:29N 53°54' E 009°09'0 0.0
2016-Feb-03 01:29N 53°54' E 009°09'0 0.0
2016-Feb-03 00:29N 53°54' E 009°09'0 0.0
2016-Feb-02 21:23N 53°54' E 009°09'0 0.0
2016-Feb-02 19:22N 53°54' E 009°09'0 0.0
2016-Feb-02 15:22N 53°54' E 009°09'0 0.0
2016-Feb-02 13:30N 53°54' E 009°09'0 0.0
2016-Feb-02 12:33N 53°54' E 009°09'33 6.6
2016-Feb-02 07:32N 54°20' E 009°43'3 3.1
2016-Feb-02 06:33N 54°22' E 009°47'8 7.6
2016-Feb-02 05:33N 54°21' E 010°01'4 4.2
2016-Feb-02 04:33N 54°22' E 010°08'0 0.5
2016-Feb-02 03:34N 54°22' E 010°08'1 1.3
2016-Feb-02 02:34N 54°22' E 010°11'5 4.6
2016-Feb-02 01:31N 54°27' E 010°14'12 9.1
2016-Feb-02 00:14N 54°33' E 010°31'6 9.2
2016-Feb-01 23:33N 54°35' E 010°41'9 8.8
2016-Feb-01 22:34N 54°36' E 010°57'8 7.7
2016-Feb-01 21:33N 54°36' E 011°10'8 8.2
2016-Feb-01 20:34N 54°33' E 011°23'8 7.8
2016-Feb-01 19:33N 54°30' E 011°35'9 8.5
2016-Feb-01 18:33N 54°27' E 011°49'11 9.1
2016-Feb-01 17:22N 54°27' E 012°07'55 8.8
2016-Feb-01 11:09N 54°46' E 013°36'1110.3
2016-Feb-01 10:07N 54°43' E 013°54'710.5
2016-Feb-01 09:26N 54°41' E 014°06'28 9.1
2016-Feb-01 06:23N 54°48' E 014°53'8 9.8
2016-Feb-01 05:34N 54°53' E 015°04'1010.1
2016-Feb-01 04:33N 54°59' E 015°18'1010.4
2016-Feb-01 03:33N 55°06' E 015°32'  
2016-Jan-26 09:10N 54°12' E 014°40'710.8
2016-Jan-26 08:33N 54°07' E 014°32'1110.9
2016-Jan-26 07:33N 54°01' E 014°17'9 8.6
2016-Jan-26 06:33N 53°52' E 014°17'10 9.8
2016-Jan-26 05:33N 53°44' E 014°26'1010.3
2016-Jan-26 04:33N 53°35' E 014°36'8 8.3
2016-Jan-26 03:33N 53°27' E 014°36'3 2.9
2016-Jan-26 02:33N 53°24' E 014°37'0 0.0
2016-Jan-26 01:33N 53°24' E 014°37'0 0.0
2016-Jan-26 00:33N 53°24' E 014°37'0 0.0
2016-Jan-25 23:33N 53°24' E 014°37'  

Dump ship's entire track history